Flight Track Log - Related Links

Times and Time Zones

All times are in EDT time to prevent confusion due to time zone crossing. See the AAL1473 flight status page for this flight to view local times or setup timezone preferences in your user account.

Time Position Orientation Groundspeed Altitude Reporting Facility
EDT Latitude Longitude Course Direction KTS MPH feet Rate Location/Type
Tue 10:51:08 PM 32.8833 -97.0500 280° West 170 196 1,700  Level Dallas / Fort Worth TRACON
Tue 10:51:50 PM 32.8500 -97.0667 203° Southwest 194 223 3,100 2,050 Climbing Dallas / Fort Worth TRACON
Tue 10:53:00 PM 32.9266 -97.4192 280° West  Level FlightAware Approximate
Tue 10:53:08 PM 32.7667 -97.0833 190° South 243 280 5,800  Level Dallas / Fort Worth TRACON
Tue 10:53:56 PM 32.7333 -97.1333 232° Southwest 278 320 7,900 2,105 Climbing Dallas / Fort Worth TRACON
Tue 10:54:00 PM 32.9481 -97.5549 281° West  Level FlightAware Approximate
Tue 10:55:00 PM 32.9667 -97.6909 270° West  Level FlightAware Approximate
Tue 10:55:02 PM 32.7667 -97.2333 292° West 285 328 9,800  Level Dallas / Fort Worth TRACON
Tue 10:56:00 PM 32.9812 -97.8275 280° West  Level FlightAware Approximate
Tue 10:56:10 PM 32.8103 -97.3369 297° West 311 358 11,500  Level Fort Worth Center
Tue 10:57:10 PM 32.8481 -97.4283 296° West 331 381 13,700 2,350 Climbing Fort Worth Center
Tue 10:58:10 PM 32.9000 -97.5422 299° West 346 398 16,200 2,200 Climbing Fort Worth Center
Tue 10:59:10 PM 32.9481 -97.6586 296° West 372 428 18,100 2,000 Climbing Fort Worth Center
Tue 11:00:10 PM 32.9853 -97.7775 290° West 384 442 20,200 2,000 Climbing Fort Worth Center
Tue 11:01:10 PM 33.0078 -97.8989 282° West 384 442 22,100 1,800 Climbing Fort Worth Center
Tue 11:02:10 PM 33.0303 -98.0278 282° West 397 457 23,800 1,550 Climbing Fort Worth Center
Tue 11:03:10 PM 33.0503 -98.1569 281° West 397 457 25,200 1,650 Climbing Fort Worth Center
Tue 11:04:10 PM 33.0619 -98.2858 276° West 397 457 27,100 1,400 Climbing Fort Worth Center
Tue 11:05:10 PM 33.0694 -98.4175 274° West 397 457 28,000 1,000 Climbing Fort Worth Center
Tue 11:06:10 PM 33.0744 -98.5539 273° West 409 471 29,100 950 Climbing Fort Worth Center
Tue 11:07:10 PM 33.0794 -98.6753 273° West 409 471 29,900 1,100 Climbing Fort Worth Center
Tue 11:08:10 PM 33.0928 -98.8119 277° West 415 478 31,300 1,000 Climbing Fort Worth Center
Tue 11:09:10 PM 33.1036 -98.9436 276° West 415 478 31,900 350 Climbing Fort Worth Center
Tue 11:10:10 PM 33.1125 -99.0775 275° West 410 472 32,000 50 Climbing Fort Worth Center
Tue 11:11:10 PM 33.1169 -99.2092 272° West 404 465 32,000  Level Fort Worth Center
Tue 11:12:10 PM 33.1189 -99.3506 271° West 404 465 32,000  Level Fort Worth Center
Tue 11:13:10 PM 33.1189 -99.4794 270° West 404 465 32,000  Level Fort Worth Center
Tue 11:14:10 PM 33.1208 -99.6086 271° West 399 459 32,000  Level Fort Worth Center
Tue 11:15:10 PM 33.1228 -99.7375 271° West 399 459 32,000  Level Fort Worth Center
Tue 11:16:10 PM 33.1350 -99.8694 276° West 399 459 32,000  Level Fort Worth Center
Tue 11:17:10 PM 33.1617 -99.9967 284° West 404 465 32,000  Level Fort Worth Center
Tue 11:18:10 PM 33.1944 -100.1217 287° West 398 458 32,000  Level Fort Worth Center
Tue 11:19:10 PM 33.2231 -100.2467 285° West 398 458 32,000  Level Fort Worth Center
Tue 11:20:10 PM 33.2536 -100.3694 287° West 398 458 32,000  Level Fort Worth Center
Tue 11:21:10 PM 33.2839 -100.4947 286° West 398 458 32,000  Level Fort Worth Center
Tue 11:22:10 PM 33.3139 -100.6275 285° West 405 466 32,000  Level Fort Worth Center
Tue 11:23:10 PM 33.3439 -100.7553 286° West 405 466 32,000  Level Fort Worth Center
Tue 11:24:10 PM 33.3758 -100.8883 286° West 405 466 32,000  Level Fort Worth Center
Tue 11:25:10 PM 33.4036 -101.0164 285° West 410 472 32,000  Level Fort Worth Center
Tue 11:26:10 PM 33.4314 -101.1369 285° West 410 472 32,000  Level Fort Worth Center
Tue 11:27:10 PM 33.4644 -101.2828 285° West 410 472 32,000  Level Fort Worth Center
Tue 11:28:10 PM 33.4919 -101.4036 285° West 416 479 32,000  Level Fort Worth Center
Tue 11:29:10 PM 33.5247 -101.5494 285° West 425 489 32,000  Level Fort Worth Center
Tue 11:30:10 PM 33.5519 -101.6706 285° West 420 483 32,000  Level Fort Worth Center
Tue 11:31:10 PM 33.5808 -101.8064 284° West 425 489 32,000  Level Fort Worth Center
Tue 11:32:10 PM 33.6133 -101.9453 286° West 417 480 32,000  Level Fort Worth Center
Tue 11:33:10 PM 33.6414 -102.0889 283° West 410 472 32,000  Level Fort Worth Center
Tue 11:34:10 PM 33.6661 -102.2100 284° West 410 472 32,000  Level Fort Worth Center
Tue 11:35:56 PM 33.7206 -102.4408 286° West 413 475 32,000  Level Albuquerque Center
Tue 11:36:57 PM 33.7489 -102.5719 285° West 411 473 32,000  Level Albuquerque Center
Tue 11:37:58 PM 33.7767 -102.7033 284° West 408 470 32,000 341 Level Albuquerque Center
Tue 11:39:00 PM 33.8050 -102.8350 285° West 409 471 32,700 732 Climbing Albuquerque Center
Tue 11:40:01 PM 33.8331 -102.9669 284° West 408 470 33,500 639 Climbing Albuquerque Center
Tue 11:41:02 PM 33.8681 -103.1225 285° West 404 465 34,000 246 Climbing Albuquerque Center
Tue 11:42:03 PM 33.8978 -103.2575 285° West 413 475 34,000  Level Albuquerque Center
Tue 11:43:05 PM 33.9267 -103.3942 284° West 419 482 34,000  Level Albuquerque Center
Tue 11:44:06 PM 33.9536 -103.5328 283° West 423 487 34,000  Level Albuquerque Center
Tue 11:45:07 PM 33.9819 -103.6675 284° West 420 483 34,000  Level Albuquerque Center
Tue 11:46:08 PM 34.0117 -103.8183 283° West 419 482 34,000  Level Albuquerque Center
Tue 11:47:10 PM 34.0397 -103.9586 284° West 423 487 34,000  Level Albuquerque Center
Tue 11:48:11 PM 34.0700 -104.0981 285° West 425 489 34,000  Level Albuquerque Center
Tue 11:49:12 PM 34.0983 -104.2392 284° West 427 491 34,000  Level Albuquerque Center
Tue 11:50:13 PM 34.1264 -104.3825 283° West 430 495 34,000  Level Albuquerque Center
Tue 11:51:15 PM 34.1547 -104.5253 284° West 433 498 34,000  Level Albuquerque Center
Tue 11:52:16 PM 34.1811 -104.6664 283° West 429 494 34,000  Level Albuquerque Center
Tue 11:53:17 PM 34.2092 -104.8119 283° West 435 501 34,000  Level Albuquerque Center
Tue 11:54:18 PM 34.2383 -104.9603 283° West 445 512 34,000  Level Albuquerque Center
Tue 11:55:19 PM 34.2672 -105.1050 284° West 443 510 34,000  Level Albuquerque Center
Tue 11:56:21 PM 34.2944 -105.2506 283° West 441 507 34,000  Level Albuquerque Center
Tue 11:57:22 PM 34.3231 -105.4000 283° West 448 516 34,000  Level Albuquerque Center
Tue 11:58:23 PM 34.3508 -105.5492 283° West 449 517 34,000  Level Albuquerque Center
Tue 11:59:24 PM 34.3800 -105.6961 284° West 447 514 34,000  Level Albuquerque Center
Wed 12:00:25 AM 34.4072 -105.8458 282° West 450 518 34,000  Level Albuquerque Center
Wed 12:01:26 AM 34.4336 -105.9956 282° West 451 519 34,000  Level Albuquerque Center
Wed 12:02:28 AM 34.4658 -106.1711 283° West 452 520 34,000  Level Albuquerque Center
Wed 12:03:29 AM 34.4906 -106.3128 282° West 455 524 34,000  Level Albuquerque Center
Wed 12:04:30 AM 34.5169 -106.4625 282° West 454 522 34,000  Level Albuquerque Center
Wed 12:05:31 AM 34.5450 -106.6103 283° West 450 518 34,000  Level Albuquerque Center
Wed 12:06:32 AM 34.5706 -106.7600 282° West 449 517 34,000  Level Albuquerque Center
Wed 12:07:33 AM 34.5942 -106.9108 281° West 452 520 34,000  Level Albuquerque Center
Wed 12:08:34 AM 34.6053 -107.0628 275° West 450 518 34,000  Level Albuquerque Center
Wed 12:09:35 AM 34.6136 -107.2167 274° West 451 519 34,000  Level Albuquerque Center
Wed 12:10:36 AM 34.6208 -107.3672 273° West 447 514 34,000 -49 Level Albuquerque Center
Wed 12:11:37 AM 34.6281 -107.5181 273° West 446 513 33,900 -639 Descending Albuquerque Center
Wed 12:12:38 AM 34.6336 -107.6711 273° West 450 518 32,700 -1,328 Descending Albuquerque Center
Wed 12:13:39 AM 34.6414 -107.8247 274° West 454 522 31,200 -1,230 Descending Albuquerque Center
Wed 12:14:40 AM 34.6483 -107.9806 273° West 460 529 30,200 -590 Descending Albuquerque Center
Wed 12:15:41 AM 34.6544 -108.1375 273° West 463 533 30,000 -99 Descending Albuquerque Center
Wed 12:16:41 AM 34.6614 -108.2942 273° West 465 535 30,000  Level Albuquerque Center
Wed 12:17:42 AM 34.6675 -108.4744 272° West 450 518 30,000  Level Albuquerque Center
Wed 12:18:43 AM 34.6736 -108.6289 273° West 446 513 30,000 -344 Level Albuquerque Center
Wed 12:19:44 AM 34.6778 -108.7722 272° West 445 512 29,300 -836 Descending Albuquerque Center
Wed 12:20:45 AM 34.6828 -108.9167 272° West 446 513 28,300 -639 Descending Albuquerque Center
Wed 12:21:46 AM 34.6883 -109.0783 272° West 433 498 28,000 -148 Descending Albuquerque Center
Wed 12:22:47 AM 34.6922 -109.2178 272° West 432 497 28,000  Level Albuquerque Center
Wed 12:23:48 AM 34.6964 -109.3575 272° West 431 496 28,000  Level Albuquerque Center
Wed 12:24:48 AM 34.7011 -109.5219 272° West 434 499 28,000  Level Albuquerque Center
Wed 12:25:49 AM 34.7042 -109.6686 271° West 443 510 28,000  Level Albuquerque Center
Wed 12:26:50 AM 34.7089 -109.8164 272° West 452 520 28,000  Level Albuquerque Center
Wed 12:27:51 AM 34.6658 -109.9750 252° West 452 520 28,000  Level Albuquerque Center
Wed 12:28:51 AM 34.6181 -110.1072 246° West 449 517 28,000  Level Albuquerque Center
Wed 12:29:52 AM 34.5722 -110.2456 248° West 455 524 28,000  Level Albuquerque Center
Wed 12:30:53 AM 34.5008 -110.3892 239° Southwest 452 520 28,000 -49 Level Albuquerque Center
Wed 12:31:54 AM 34.4336 -110.5128 237° Southwest 461 531 27,900 -893 Descending Albuquerque Center
Wed 12:32:54 AM 34.3594 -110.6350 234° Southwest 454 522 26,200 -1,983 Descending Albuquerque Center
Wed 12:33:55 AM 34.2836 -110.7522 232° Southwest 446 513 23,900 -2,361 Descending Albuquerque Center
Wed 12:34:56 AM 34.2114 -110.8678 233° Southwest 437 503 21,400 -2,331 Descending Albuquerque Center
Wed 12:35:56 AM 34.1439 -110.9808 234° Southwest 423 487 19,200 -2,281 Descending Albuquerque Center
Wed 12:36:57 AM 34.0781 -111.0878 233° Southwest 406 467 16,800 -2,262 Descending Albuquerque Center
Wed 12:37:58 AM 34.0147 -111.1922 234° Southwest 392 451 14,600 -2,016 Descending Albuquerque Center
Wed 12:38:59 AM 33.9547 -111.2894 233° Southwest 373 429 12,700 -1,230 Descending Albuquerque Center
Wed 12:40:00 AM 33.8994 -111.3797 234° Southwest 344 396 12,100 -793 Descending Albuquerque Center
Wed 12:41:00 AM 33.8453 -111.4558 229° Southwest 310 357 11,100 -1,041 Descending Albuquerque Center
Wed 12:42:01 AM 33.7944 -111.5283 230° Southwest 290 334 10,000 -1,180 Descending Albuquerque Center
Wed 12:43:02 AM 33.7289 -111.5806 214° Southwest 287 330 8,700 -992 Descending Albuquerque Center
Wed 12:44:02 AM 33.6628 -111.6275 211° Southwest 281 323 8,000 -397 Descending Albuquerque Center
Wed 12:45:03 AM 33.6053 -111.6681 210° Southwest 262 302 7,900 -639 Descending Albuquerque Center
Wed 12:46:04 AM 33.5486 -111.7042 208° Southwest 235 270 6,700 -1,328 Descending Albuquerque Center
Wed 12:47:05 AM 33.4933 -111.7403 209° Southwest 229 264 5,200 -1,388 Descending Albuquerque Center
Wed 12:48:05 AM 33.4533 -111.7903 226° Southwest 217 250 3,900 -942 Descending Albuquerque Center
Wed 12:49:06 AM 33.4419 -111.8486 257° West 194 223 3,300 -689 Descending Albuquerque Center
Wed 12:50:07 AM 33.4411 -111.9022 269° West 177 204 2,500 -787 Descending Albuquerque Center

Login

Don't have an account? Register now (free) for customized features, flight alerts, and more!